sensor_id;sensor_type;location;lat;lon;timestamp;P1;durP1;ratioP1;P2;durP2;ratioP2
57297;SDS011;43147;50.972;18.210;2024-03-08T00:01:15;62.50;;;24.70;;
57297;SDS011;43147;50.972;18.210;2024-03-08T00:03:42;78.00;;;28.70;;
57297;SDS011;43147;50.972;18.210;2024-03-08T00:06:07;70.40;;;24.70;;
57297;SDS011;43147;50.972;18.210;2024-03-08T00:08:33;74.00;;;26.20;;
57297;SDS011;43147;50.972;18.210;2024-03-08T00:10:58;59.90;;;25.30;;
57297;SDS011;43147;50.972;18.210;2024-03-08T00:13:24;58.20;;;23.40;;
57297;SDS011;43147;50.972;18.210;2024-03-08T00:15:50;52.50;;;22.90;;
57297;SDS011;43147;50.972;18.210;2024-03-08T00:18:16;50.10;;;22.80;;
57297;SDS011;43147;50.972;18.210;2024-03-08T00:20:42;45.70;;;21.10;;
57297;SDS011;43147;50.972;18.210;2024-03-08T00:23:09;61.10;;;25.20;;
57297;SDS011;43147;50.972;18.210;2024-03-08T00:25:36;61.80;;;24.00;;
57297;SDS011;43147;50.972;18.210;2024-03-08T00:28:02;75.60;;;27.80;;
57297;SDS011;43147;50.972;18.210;2024-03-08T00:30:30;66.40;;;26.10;;
57297;SDS011;43147;50.972;18.210;2024-03-08T00:32:56;70.60;;;28.50;;
57297;SDS011;43147;50.972;18.210;2024-03-08T00:35:21;60.70;;;25.00;;
57297;SDS011;43147;50.972;18.210;2024-03-08T00:37:48;54.10;;;21.50;;
57297;SDS011;43147;50.972;18.210;2024-03-08T00:40:13;57.20;;;23.50;;
57297;SDS011;43147;50.972;18.210;2024-03-08T00:42:39;59.70;;;25.30;;
57297;SDS011;43147;50.972;18.210;2024-03-08T00:45:06;61.70;;;23.20;;
57297;SDS011;43147;50.972;18.210;2024-03-08T00:47:33;52.80;;;22.50;;
57297;SDS011;43147;50.972;18.210;2024-03-08T00:49:58;55.30;;;23.30;;
57297;SDS011;43147;50.972;18.210;2024-03-08T00:52:24;260.00;;;73.70;;
57297;SDS011;43147;50.972;18.210;2024-03-08T00:54:49;63.60;;;27.40;;
57297;SDS011;43147;50.972;18.210;2024-03-08T00:57:15;61.90;;;24.20;;
57297;SDS011;43147;50.972;18.210;2024-03-08T00:59:41;62.00;;;26.40;;
57297;SDS011;43147;50.972;18.210;2024-03-08T01:02:07;60.00;;;24.40;;
57297;SDS011;43147;50.972;18.210;2024-03-08T01:04:34;65.80;;;27.00;;
57297;SDS011;43147;50.972;18.210;2024-03-08T01:07:00;64.30;;;25.10;;
57297;SDS011;43147;50.972;18.210;2024-03-08T01:09:26;65.80;;;26.40;;
57297;SDS011;43147;50.972;18.210;2024-03-08T01:11:52;44.90;;;18.50;;
57297;SDS011;43147;50.972;18.210;2024-03-08T01:14:20;56.70;;;23.00;;
57297;SDS011;43147;50.972;18.210;2024-03-08T01:16:48;59.90;;;24.40;;
57297;SDS011;43147;50.972;18.210;2024-03-08T01:19:14;56.10;;;23.00;;
57297;SDS011;43147;50.972;18.210;2024-03-08T01:21:41;57.40;;;22.60;;
57297;SDS011;43147;50.972;18.210;2024-03-08T01:24:06;69.80;;;23.40;;
57297;SDS011;43147;50.972;18.210;2024-03-08T01:26:32;58.50;;;21.90;;
57297;SDS011;43147;50.972;18.210;2024-03-08T01:28:59;48.10;;;20.00;;
57297;SDS011;43147;50.972;18.210;2024-03-08T01:31:28;55.90;;;20.90;;
57297;SDS011;43147;50.972;18.210;2024-03-08T01:33:55;74.70;;;27.30;;
57297;SDS011;43147;50.972;18.210;2024-03-08T01:36:21;64.90;;;24.40;;
57297;SDS011;43147;50.972;18.210;2024-03-08T01:38:47;59.40;;;22.50;;
57297;SDS011;43147;50.972;18.210;2024-03-08T01:41:12;59.80;;;23.20;;
57297;SDS011;43147;50.972;18.210;2024-03-08T01:43:38;64.90;;;25.90;;
57297;SDS011;43147;50.972;18.210;2024-03-08T01:46:04;68.40;;;27.60;;
57297;SDS011;43147;50.972;18.210;2024-03-08T01:48:30;53.00;;;23.00;;
57297;SDS011;43147;50.972;18.210;2024-03-08T01:50:56;66.20;;;24.00;;
57297;SDS011;43147;50.972;18.210;2024-03-08T01:53:23;73.10;;;26.40;;
57297;SDS011;43147;50.972;18.210;2024-03-08T01:55:50;79.80;;;25.10;;
57297;SDS011;43147;50.972;18.210;2024-03-08T01:58:17;62.90;;;23.50;;
57297;SDS011;43147;50.972;18.210;2024-03-08T02:00:46;63.10;;;24.00;;
57297;SDS011;43147;50.972;18.210;2024-03-08T02:03:11;68.80;;;25.80;;
57297;SDS011;43147;50.972;18.210;2024-03-08T02:05:38;59.20;;;23.00;;
57297;SDS011;43147;50.972;18.210;2024-03-08T02:08:06;54.20;;;24.20;;
57297;SDS011;43147;50.972;18.210;2024-03-08T02:10:45;67.10;;;25.80;;
57297;SDS011;43147;50.972;18.210;2024-03-08T02:13:11;73.20;;;25.90;;
57297;SDS011;43147;50.972;18.210;2024-03-08T02:15:56;64.50;;;23.30;;
57297;SDS011;43147;50.972;18.210;2024-03-08T02:18:25;59.20;;;22.60;;
57297;SDS011;43147;50.972;18.210;2024-03-08T02:20:52;66.00;;;25.00;;
57297;SDS011;43147;50.972;18.210;2024-03-08T02:23:18;66.50;;;25.00;;
57297;SDS011;43147;50.972;18.210;2024-03-08T02:25:45;60.80;;;23.70;;
57297;SDS011;43147;50.972;18.210;2024-03-08T02:28:11;65.70;;;24.70;;
57297;SDS011;43147;50.972;18.210;2024-03-08T02:30:37;65.00;;;22.30;;
57297;SDS011;43147;50.972;18.210;2024-03-08T02:33:04;60.30;;;24.10;;
57297;SDS011;43147;50.972;18.210;2024-03-08T02:35:30;60.70;;;24.50;;
57297;SDS011;43147;50.972;18.210;2024-03-08T02:37:56;66.80;;;25.70;;
57297;SDS011;43147;50.972;18.210;2024-03-08T02:40:21;67.00;;;24.90;;
57297;SDS011;43147;50.972;18.210;2024-03-08T02:42:47;69.30;;;25.20;;
57297;SDS011;43147;50.972;18.210;2024-03-08T02:45:15;63.00;;;24.70;;
57297;SDS011;43147;50.972;18.210;2024-03-08T02:47:40;61.10;;;23.00;;
57297;SDS011;43147;50.972;18.210;2024-03-08T02:50:06;67.50;;;24.10;;
57297;SDS011;43147;50.972;18.210;2024-03-08T02:52:33;68.30;;;24.50;;
57297;SDS011;43147;50.972;18.210;2024-03-08T02:55:00;54.50;;;22.20;;
57297;SDS011;43147;50.972;18.210;2024-03-08T02:57:27;48.00;;;16.70;;
57297;SDS011;43147;50.972;18.210;2024-03-08T02:59:53;60.60;;;25.40;;
57297;SDS011;43147;50.972;18.210;2024-03-08T03:02:21;59.40;;;21.20;;
57297;SDS011;43147;50.972;18.210;2024-03-08T03:04:48;62.40;;;23.40;;
57297;SDS011;43147;50.972;18.210;2024-03-08T03:07:13;26.50;;;15.30;;
57297;SDS011;43147;50.972;18.210;2024-03-08T03:09:39;47.40;;;21.00;;
57297;SDS011;43147;50.972;18.210;2024-03-08T03:12:04;34.80;;;15.10;;
57297;SDS011;43147;50.972;18.210;2024-03-08T03:14:32;29.50;;;15.80;;
57297;SDS011;43147;50.972;18.210;2024-03-08T03:16:59;60.30;;;22.90;;
57297;SDS011;43147;50.972;18.210;2024-03-08T03:19:24;63.40;;;24.10;;
57297;SDS011;43147;50.972;18.210;2024-03-08T03:21:49;58.90;;;21.40;;
57297;SDS011;43147;50.972;18.210;2024-03-08T03:24:16;41.50;;;16.90;;
57297;SDS011;43147;50.972;18.210;2024-03-08T03:26:43;38.20;;;18.40;;
57297;SDS011;43147;50.972;18.210;2024-03-08T03:29:09;60.40;;;24.50;;
57297;SDS011;43147;50.972;18.210;2024-03-08T03:31:36;56.90;;;23.70;;
57297;SDS011;43147;50.972;18.210;2024-03-08T03:34:02;62.70;;;24.80;;
57297;SDS011;43147;50.972;18.210;2024-03-08T03:36:31;71.30;;;27.70;;
57297;SDS011;43147;50.972;18.210;2024-03-08T03:38:58;64.70;;;26.10;;
57297;SDS011;43147;50.972;18.210;2024-03-08T03:41:36;79.40;;;26.70;;
57297;SDS011;43147;50.972;18.210;2024-03-08T03:44:02;78.90;;;26.10;;
57297;SDS011;43147;50.972;18.210;2024-03-08T03:46:27;73.60;;;27.70;;
57297;SDS011;43147;50.972;18.210;2024-03-08T03:48:56;72.60;;;27.60;;
57297;SDS011;43147;50.972;18.210;2024-03-08T03:51:21;70.30;;;25.30;;
57297;SDS011;43147;50.972;18.210;2024-03-08T03:53:47;67.90;;;24.60;;
57297;SDS011;43147;50.972;18.210;2024-03-08T03:56:13;58.90;;;23.60;;
57297;SDS011;43147;50.972;18.210;2024-03-08T03:58:39;57.20;;;23.00;;
57297;SDS011;43147;50.972;18.210;2024-03-08T04:01:05;66.50;;;25.60;;
57297;SDS011;43147;50.972;18.210;2024-03-08T04:03:30;95.80;;;29.70;;
57297;SDS011;43147;50.972;18.210;2024-03-08T04:05:56;77.90;;;26.30;;
57297;SDS011;43147;50.972;18.210;2024-03-08T04:08:22;61.50;;;23.50;;
57297;SDS011;43147;50.972;18.210;2024-03-08T04:10:49;64.10;;;25.80;;
57297;SDS011;43147;50.972;18.210;2024-03-08T04:13:16;54.40;;;23.60;;
57297;SDS011;43147;50.972;18.210;2024-03-08T04:15:41;70.10;;;27.00;;
57297;SDS011;43147;50.972;18.210;2024-03-08T04:18:09;68.10;;;27.70;;
57297;SDS011;43147;50.972;18.210;2024-03-08T04:20:35;89.60;;;26.70;;
57297;SDS011;43147;50.972;18.210;2024-03-08T04:23:01;69.80;;;23.70;;
57297;SDS011;43147;50.972;18.210;2024-03-08T04:25:27;67.00;;;27.40;;
57297;SDS011;43147;50.972;18.210;2024-03-08T04:27:53;72.10;;;26.40;;
57297;SDS011;43147;50.972;18.210;2024-03-08T04:30:18;67.20;;;25.30;;
57297;SDS011;43147;50.972;18.210;2024-03-08T04:32:46;58.10;;;24.80;;
57297;SDS011;43147;50.972;18.210;2024-03-08T04:35:12;34.50;;;15.60;;
57297;SDS011;43147;50.972;18.210;2024-03-08T04:37:38;66.80;;;25.40;;
57297;SDS011;43147;50.972;18.210;2024-03-08T04:40:06;65.30;;;26.70;;
57297;SDS011;43147;50.972;18.210;2024-03-08T04:42:32;66.00;;;24.90;;
57297;SDS011;43147;50.972;18.210;2024-03-08T04:44:58;69.50;;;27.00;;
57297;SDS011;43147;50.972;18.210;2024-03-08T04:47:23;41.70;;;18.20;;
57297;SDS011;43147;50.972;18.210;2024-03-08T04:49:50;31.60;;;13.70;;
57297;SDS011;43147;50.972;18.210;2024-03-08T04:52:15;82.80;;;25.40;;
57297;SDS011;43147;50.972;18.210;2024-03-08T04:54:41;83.70;;;31.40;;
57297;SDS011;43147;50.972;18.210;2024-03-08T04:57:12;75.70;;;27.30;;
57297;SDS011;43147;50.972;18.210;2024-03-08T04:59:38;74.10;;;30.50;;
57297;SDS011;43147;50.972;18.210;2024-03-08T05:02:03;93.40;;;28.10;;
57297;SDS011;43147;50.972;18.210;2024-03-08T05:04:29;75.30;;;27.40;;
57297;SDS011;43147;50.972;18.210;2024-03-08T05:06:55;81.60;;;28.00;;
57297;SDS011;43147;50.972;18.210;2024-03-08T05:09:21;55.00;;;19.70;;
57297;SDS011;43147;50.972;18.210;2024-03-08T05:11:46;58.80;;;21.70;;
57297;SDS011;43147;50.972;18.210;2024-03-08T05:14:13;49.30;;;21.10;;
57297;SDS011;43147;50.972;18.210;2024-03-08T05:16:47;76.30;;;28.90;;
57297;SDS011;43147;50.972;18.210;2024-03-08T05:19:16;62.70;;;26.10;;
57297;SDS011;43147;50.972;18.210;2024-03-08T05:21:45;73.00;;;27.20;;
57297;SDS011;43147;50.972;18.210;2024-03-08T05:24:12;74.60;;;30.30;;
57297;SDS011;43147;50.972;18.210;2024-03-08T05:26:39;72.90;;;30.60;;
57297;SDS011;43147;50.972;18.210;2024-03-08T05:29:04;64.40;;;27.20;;
57297;SDS011;43147;50.972;18.210;2024-03-08T05:31:30;86.60;;;32.20;;
57297;SDS011;43147;50.972;18.210;2024-03-08T05:34:08;65.50;;;26.50;;
57297;SDS011;43147;50.972;18.210;2024-03-08T05:36:35;49.70;;;22.40;;
57297;SDS011;43147;50.972;18.210;2024-03-08T05:39:01;66.30;;;24.70;;
57297;SDS011;43147;50.972;18.210;2024-03-08T05:41:26;78.80;;;26.90;;
57297;SDS011;43147;50.972;18.210;2024-03-08T05:43:52;50.10;;;22.30;;
57297;SDS011;43147;50.972;18.210;2024-03-08T05:46:17;34.00;;;15.20;;
57297;SDS011;43147;50.972;18.210;2024-03-08T05:48:43;37.20;;;15.60;;
57297;SDS011;43147;50.972;18.210;2024-03-08T05:51:09;61.40;;;24.80;;
57297;SDS011;43147;50.972;18.210;2024-03-08T05:53:35;79.00;;;27.00;;
57297;SDS011;43147;50.972;18.210;2024-03-08T05:56:00;61.40;;;22.50;;
57297;SDS011;43147;50.972;18.210;2024-03-08T05:58:27;72.10;;;28.70;;
57297;SDS011;43147;50.972;18.210;2024-03-08T06:00:55;57.00;;;22.20;;
57297;SDS011;43147;50.972;18.210;2024-03-08T06:03:21;85.00;;;29.40;;
57297;SDS011;43147;50.972;18.210;2024-03-08T06:05:47;80.10;;;28.60;;
57297;SDS011;43147;50.972;18.210;2024-03-08T06:08:13;88.20;;;31.50;;
57297;SDS011;43147;50.972;18.210;2024-03-08T06:10:40;68.00;;;27.70;;
57297;SDS011;43147;50.972;18.210;2024-03-08T06:13:06;60.00;;;25.80;;
57297;SDS011;43147;50.972;18.210;2024-03-08T06:15:32;68.20;;;26.60;;
57297;SDS011;43147;50.972;18.210;2024-03-08T06:17:57;54.50;;;24.00;;
57297;SDS011;43147;50.972;18.210;2024-03-08T06:20:23;56.60;;;24.10;;
57297;SDS011;43147;50.972;18.210;2024-03-08T06:22:51;56.10;;;24.80;;
57297;SDS011;43147;50.972;18.210;2024-03-08T06:25:20;53.90;;;25.10;;
57297;SDS011;43147;50.972;18.210;2024-03-08T06:27:46;47.10;;;22.80;;
57297;SDS011;43147;50.972;18.210;2024-03-08T06:30:12;52.10;;;23.50;;
57297;SDS011;43147;50.972;18.210;2024-03-08T06:32:38;43.30;;;24.10;;
57297;SDS011;43147;50.972;18.210;2024-03-08T06:35:04;42.30;;;23.80;;
57297;SDS011;43147;50.972;18.210;2024-03-08T06:37:35;49.10;;;25.50;;
57297;SDS011;43147;50.972;18.210;2024-03-08T06:40:01;39.60;;;23.00;;
57297;SDS011;43147;50.972;18.210;2024-03-08T06:42:30;45.80;;;24.10;;
57297;SDS011;43147;50.972;18.210;2024-03-08T06:45:00;44.40;;;32.00;;
57297;SDS011;43147;50.972;18.210;2024-03-08T06:47:30;41.10;;;32.20;;
57297;SDS011;43147;50.972;18.210;2024-03-08T06:49:57;38.90;;;22.80;;
57297;SDS011;43147;50.972;18.210;2024-03-08T06:52:23;43.60;;;22.70;;
57297;SDS011;43147;50.972;18.210;2024-03-08T06:54:48;39.30;;;26.90;;
57297;SDS011;43147;50.972;18.210;2024-03-08T06:57:14;43.70;;;24.00;;
57297;SDS011;43147;50.972;18.210;2024-03-08T06:59:42;41.30;;;22.60;;
57297;SDS011;43147;50.972;18.210;2024-03-08T07:02:07;39.50;;;24.10;;
57297;SDS011;43147;50.972;18.210;2024-03-08T07:04:34;40.90;;;29.50;;
57297;SDS011;43147;50.972;18.210;2024-03-08T07:07:03;42.40;;;30.40;;
57297;SDS011;43147;50.972;18.210;2024-03-08T07:09:30;33.10;;;27.00;;
57297;SDS011;43147;50.972;18.210;2024-03-08T07:11:55;36.90;;;27.20;;
57297;SDS011;43147;50.972;18.210;2024-03-08T07:14:21;35.70;;;25.70;;
57297;SDS011;43147;50.972;18.210;2024-03-08T07:16:47;32.80;;;25.10;;
57297;SDS011;43147;50.972;18.210;2024-03-08T07:19:16;42.30;;;30.10;;
57297;SDS011;43147;50.972;18.210;2024-03-08T07:21:45;38.60;;;28.90;;
57297;SDS011;43147;50.972;18.210;2024-03-08T07:24:12;30.30;;;26.60;;
57297;SDS011;43147;50.972;18.210;2024-03-08T07:26:54;28.30;;;23.80;;
57297;SDS011;43147;50.972;18.210;2024-03-08T07:29:21;33.60;;;24.20;;
57297;SDS011;43147;50.972;18.210;2024-03-08T07:31:47;37.20;;;26.50;;
57297;SDS011;43147;50.972;18.210;2024-03-08T07:34:21;28.70;;;22.70;;
57297;SDS011;43147;50.972;18.210;2024-03-08T07:36:47;24.40;;;20.10;;
57297;SDS011;43147;50.972;18.210;2024-03-08T07:39:12;31.20;;;20.90;;
57297;SDS011;43147;50.972;18.210;2024-03-08T07:41:39;26.50;;;21.20;;
57297;SDS011;43147;50.972;18.210;2024-03-08T07:44:07;28.90;;;21.70;;
57297;SDS011;43147;50.972;18.210;2024-03-08T07:46:33;24.20;;;21.10;;
57297;SDS011;43147;50.972;18.210;2024-03-08T07:49:02;28.00;;;21.50;;
57297;SDS011;43147;50.972;18.210;2024-03-08T07:51:28;27.80;;;21.40;;
57297;SDS011;43147;50.972;18.210;2024-03-08T07:53:54;28.00;;;21.10;;
57297;SDS011;43147;50.972;18.210;2024-03-08T07:56:20;28.80;;;21.70;;
57297;SDS011;43147;50.972;18.210;2024-03-08T07:58:47;26.70;;;21.00;;
57297;SDS011;43147;50.972;18.210;2024-03-08T08:01:17;28.10;;;21.60;;
57297;SDS011;43147;50.972;18.210;2024-03-08T08:03:43;24.00;;;20.40;;
57297;SDS011;43147;50.972;18.210;2024-03-08T08:06:09;25.70;;;21.00;;
57297;SDS011;43147;50.972;18.210;2024-03-08T08:08:35;23.90;;;20.30;;
57297;SDS011;43147;50.972;18.210;2024-03-08T08:11:01;24.90;;;20.70;;
57297;SDS011;43147;50.972;18.210;2024-03-08T08:13:27;33.60;;;24.00;;
57297;SDS011;43147;50.972;18.210;2024-03-08T08:15:57;27.80;;;22.20;;
57297;SDS011;43147;50.972;18.210;2024-03-08T08:18:23;31.40;;;23.30;;
57297;SDS011;43147;50.972;18.210;2024-03-08T08:20:50;28.80;;;21.50;;
57297;SDS011;43147;50.972;18.210;2024-03-08T08:23:17;26.70;;;21.70;;
57297;SDS011;43147;50.972;18.210;2024-03-08T08:25:45;27.20;;;21.40;;
57297;SDS011;43147;50.972;18.210;2024-03-08T08:28:11;36.50;;;26.00;;
57297;SDS011;43147;50.972;18.210;2024-03-08T08:30:38;32.50;;;25.30;;
57297;SDS011;43147;50.972;18.210;2024-03-08T08:33:04;35.60;;;27.60;;
57297;SDS011;43147;50.972;18.210;2024-03-08T08:35:31;35.80;;;26.30;;
57297;SDS011;43147;50.972;18.210;2024-03-08T08:37:57;32.50;;;24.60;;
57297;SDS011;43147;50.972;18.210;2024-03-08T08:40:24;31.80;;;25.70;;
57297;SDS011;43147;50.972;18.210;2024-03-08T08:42:53;33.60;;;27.20;;
57297;SDS011;43147;50.972;18.210;2024-03-08T08:45:19;35.40;;;27.00;;
57297;SDS011;43147;50.972;18.210;2024-03-08T08:47:44;35.80;;;27.00;;
57297;SDS011;43147;50.972;18.210;2024-03-08T08:50:10;31.90;;;25.30;;
57297;SDS011;43147;50.972;18.210;2024-03-08T08:52:39;33.90;;;25.70;;
57297;SDS011;43147;50.972;18.210;2024-03-08T08:55:05;32.10;;;24.10;;
57297;SDS011;43147;50.972;18.210;2024-03-08T08:57:31;32.20;;;25.70;;
57297;SDS011;43147;50.972;18.210;2024-03-08T08:59:59;34.30;;;25.50;;
57297;SDS011;43147;50.972;18.210;2024-03-08T09:02:25;33.00;;;26.30;;
57297;SDS011;43147;50.972;18.210;2024-03-08T09:04:51;29.60;;;24.90;;
57297;SDS011;43147;50.972;18.210;2024-03-08T09:07:17;31.00;;;25.30;;
57297;SDS011;43147;50.972;18.210;2024-03-08T09:09:44;35.80;;;23.20;;
57297;SDS011;43147;50.972;18.210;2024-03-08T09:12:10;30.90;;;23.40;;
57297;SDS011;43147;50.972;18.210;2024-03-08T09:14:41;27.80;;;22.90;;
57297;SDS011;43147;50.972;18.210;2024-03-08T09:17:07;32.10;;;22.60;;
57297;SDS011;43147;50.972;18.210;2024-03-08T09:19:34;27.60;;;21.60;;
57297;SDS011;43147;50.972;18.210;2024-03-08T09:22:00;27.90;;;22.30;;
57297;SDS011;43147;50.972;18.210;2024-03-08T09:24:25;25.90;;;20.20;;
57297;SDS011;43147;50.972;18.210;2024-03-08T09:26:51;24.90;;;19.00;;
57297;SDS011;43147;50.972;18.210;2024-03-08T09:29:17;21.50;;;19.10;;
57297;SDS011;43147;50.972;18.210;2024-03-08T09:31:42;21.50;;;18.80;;
57297;SDS011;43147;50.972;18.210;2024-03-08T09:34:08;22.70;;;19.30;;
57297;SDS011;43147;50.972;18.210;2024-03-08T09:36:34;20.90;;;18.30;;
57297;SDS011;43147;50.972;18.210;2024-03-08T09:39:00;21.30;;;18.80;;
57297;SDS011;43147;50.972;18.210;2024-03-08T09:41:26;26.00;;;20.90;;
57297;SDS011;43147;50.972;18.210;2024-03-08T09:43:52;24.10;;;19.80;;
57297;SDS011;43147;50.972;18.210;2024-03-08T09:46:19;22.80;;;19.20;;
57297;SDS011;43147;50.972;18.210;2024-03-08T09:48:45;20.30;;;18.30;;
57297;SDS011;43147;50.972;18.210;2024-03-08T09:51:12;20.50;;;18.30;;
57297;SDS011;43147;50.972;18.210;2024-03-08T09:53:40;22.10;;;18.20;;
57297;SDS011;43147;50.972;18.210;2024-03-08T09:56:09;21.20;;;18.20;;
57297;SDS011;43147;50.972;18.210;2024-03-08T09:58:37;20.10;;;17.90;;
57297;SDS011;43147;50.972;18.210;2024-03-08T10:01:19;18.70;;;16.90;;
57297;SDS011;43147;50.972;18.210;2024-03-08T10:03:46;22.10;;;18.10;;
57297;SDS011;43147;50.972;18.210;2024-03-08T10:06:14;21.00;;;18.30;;
57297;SDS011;43147;50.972;18.210;2024-03-08T10:08:39;22.60;;;19.60;;
57297;SDS011;43147;50.972;18.210;2024-03-08T10:11:12;20.20;;;17.40;;
57297;SDS011;43147;50.972;18.210;2024-03-08T10:13:38;24.70;;;18.40;;
57297;SDS011;43147;50.972;18.210;2024-03-08T10:16:06;20.90;;;17.10;;
57297;SDS011;43147;50.972;18.210;2024-03-08T10:18:32;19.40;;;17.40;;
57297;SDS011;43147;50.972;18.210;2024-03-08T10:23:34;25.10;;;20.70;;
57297;SDS011;43147;50.972;18.210;2024-03-08T10:26:09;23.60;;;19.70;;
57297;SDS011;43147;50.972;18.210;2024-03-08T10:28:42;21.50;;;18.10;;
57297;SDS011;43147;50.972;18.210;2024-03-08T10:31:09;19.90;;;17.60;;
57297;SDS011;43147;50.972;18.210;2024-03-08T10:33:35;19.50;;;17.00;;
57297;SDS011;43147;50.972;18.210;2024-03-08T10:36:05;20.10;;;18.00;;
57297;SDS011;43147;50.972;18.210;2024-03-08T10:38:33;21.80;;;17.10;;
57297;SDS011;43147;50.972;18.210;2024-03-08T10:41:01;19.80;;;17.70;;
57297;SDS011;43147;50.972;18.210;2024-03-08T10:43:28;20.20;;;18.10;;
57297;SDS011;43147;50.972;18.210;2024-03-08T10:46:09;22.60;;;17.80;;
57297;SDS011;43147;50.972;18.210;2024-03-08T10:48:44;25.20;;;20.60;;
57297;SDS011;43147;50.972;18.210;2024-03-08T10:51:11;22.70;;;18.80;;
57297;SDS011;43147;50.972;18.210;2024-03-08T10:53:37;22.30;;;18.70;;
57297;SDS011;43147;50.972;18.210;2024-03-08T10:56:06;26.80;;;18.50;;
57297;SDS011;43147;50.972;18.210;2024-03-08T10:58:34;22.90;;;19.70;;
57297;SDS011;43147;50.972;18.210;2024-03-08T11:01:01;19.70;;;17.50;;
57297;SDS011;43147;50.972;18.210;2024-03-08T11:06:10;21.60;;;18.20;;
57297;SDS011;43147;50.972;18.210;2024-03-08T11:08:40;19.20;;;17.10;;
57297;SDS011;43147;50.972;18.210;2024-03-08T11:11:06;19.30;;;17.30;;
57297;SDS011;43147;50.972;18.210;2024-03-08T11:21:32;18.50;;;16.50;;
57297;SDS011;43147;50.972;18.210;2024-03-08T11:24:02;26.20;;;18.10;;
57297;SDS011;43147;50.972;18.210;2024-03-08T11:34:31;19.10;;;17.00;;
57297;SDS011;43147;50.972;18.210;2024-03-08T11:36:58;21.80;;;17.80;;
57297;SDS011;43147;50.972;18.210;2024-03-08T11:39:24;19.00;;;17.10;;
57297;SDS011;43147;50.972;18.210;2024-03-08T11:41:50;18.40;;;16.40;;
57297;SDS011;43147;50.972;18.210;2024-03-08T11:44:17;20.60;;;17.10;;
57297;SDS011;43147;50.972;18.210;2024-03-08T11:46:43;20.60;;;17.90;;
57297;SDS011;43147;50.972;18.210;2024-03-08T11:49:13;19.60;;;17.60;;
57297;SDS011;43147;50.972;18.210;2024-03-08T11:51:39;23.60;;;18.40;;
57297;SDS011;43147;50.972;18.210;2024-03-08T11:54:06;20.80;;;18.60;;
57297;SDS011;43147;50.972;18.210;2024-03-08T11:56:31;19.90;;;17.80;;
57297;SDS011;43147;50.972;18.210;2024-03-08T11:58:57;21.00;;;17.70;;
57297;SDS011;43147;50.972;18.210;2024-03-08T12:01:23;21.30;;;17.60;;
57297;SDS011;43147;50.972;18.210;2024-03-08T12:03:55;19.90;;;17.30;;
57297;SDS011;43147;50.972;18.210;2024-03-08T12:06:25;24.30;;;18.50;;
57297;SDS011;43147;50.972;18.210;2024-03-08T12:08:52;21.10;;;18.40;;
57297;SDS011;43147;50.972;18.210;2024-03-08T12:11:19;26.00;;;20.50;;
57297;SDS011;43147;50.972;18.210;2024-03-08T12:13:48;19.50;;;16.30;;
57297;SDS011;43147;50.972;18.210;2024-03-08T12:16:16;18.50;;;16.60;;
57297;SDS011;43147;50.972;18.210;2024-03-08T12:18:46;18.60;;;16.60;;
57297;SDS011;43147;50.972;18.210;2024-03-08T12:21:13;19.70;;;17.70;;
57297;SDS011;43147;50.972;18.210;2024-03-08T12:23:42;21.10;;;18.80;;
57297;SDS011;43147;50.972;18.210;2024-03-08T12:26:13;21.00;;;18.70;;
57297;SDS011;43147;50.972;18.210;2024-03-08T12:28:42;25.40;;;19.30;;
57297;SDS011;43147;50.972;18.210;2024-03-08T12:31:13;23.80;;;17.60;;
57297;SDS011;43147;50.972;18.210;2024-03-08T12:33:52;24.90;;;19.30;;
57297;SDS011;43147;50.972;18.210;2024-03-08T12:36:19;25.90;;;20.40;;
57297;SDS011;43147;50.972;18.210;2024-03-08T12:38:47;27.60;;;20.90;;
57297;SDS011;43147;50.972;18.210;2024-03-08T12:41:14;25.40;;;20.70;;
57297;SDS011;43147;50.972;18.210;2024-03-08T12:43:41;26.60;;;20.90;;
57297;SDS011;43147;50.972;18.210;2024-03-08T12:46:07;24.60;;;21.60;;
57297;SDS011;43147;50.972;18.210;2024-03-08T12:48:34;43.10;;;23.60;;
57297;SDS011;43147;50.972;18.210;2024-03-08T12:51:00;26.90;;;22.80;;
57297;SDS011;43147;50.972;18.210;2024-03-08T12:53:26;30.60;;;23.70;;
57297;SDS011;43147;50.972;18.210;2024-03-08T12:55:54;29.70;;;23.80;;
57297;SDS011;43147;50.972;18.210;2024-03-08T12:58:22;34.20;;;26.20;;
57297;SDS011;43147;50.972;18.210;2024-03-08T13:00:47;40.00;;;27.70;;
57297;SDS011;43147;50.972;18.210;2024-03-08T13:03:14;32.70;;;25.10;;
57297;SDS011;43147;50.972;18.210;2024-03-08T13:05:39;35.20;;;25.90;;
57297;SDS011;43147;50.972;18.210;2024-03-08T13:08:07;33.90;;;27.30;;
57297;SDS011;43147;50.972;18.210;2024-03-08T13:10:38;33.70;;;27.30;;
57297;SDS011;43147;50.972;18.210;2024-03-08T13:13:04;35.00;;;24.70;;
57297;SDS011;43147;50.972;18.210;2024-03-08T13:15:31;29.20;;;24.90;;
57297;SDS011;43147;50.972;18.210;2024-03-08T13:17:56;28.60;;;14.20;;
57297;SDS011;43147;50.972;18.210;2024-03-08T13:20:25;31.50;;;25.70;;
57297;SDS011;43147;50.972;18.210;2024-03-08T13:22:54;33.70;;;25.40;;
57297;SDS011;43147;50.972;18.210;2024-03-08T13:25:20;24.50;;;14.20;;
57297;SDS011;43147;50.972;18.210;2024-03-08T13:27:49;59.10;;;44.90;;
57297;SDS011;43147;50.972;18.210;2024-03-08T13:30:15;36.00;;;27.00;;
57297;SDS011;43147;50.972;18.210;2024-03-08T13:32:43;36.80;;;30.70;;
57297;SDS011;43147;50.972;18.210;2024-03-08T13:35:10;41.60;;;31.50;;
57297;SDS011;43147;50.972;18.210;2024-03-08T13:37:39;38.60;;;28.90;;
57297;SDS011;43147;50.972;18.210;2024-03-08T13:40:06;34.30;;;18.90;;
57297;SDS011;43147;50.972;18.210;2024-03-08T13:42:39;41.40;;;30.50;;
57297;SDS011;43147;50.972;18.210;2024-03-08T13:45:05;45.80;;;37.70;;
57297;SDS011;43147;50.972;18.210;2024-03-08T13:47:34;47.70;;;23.00;;
57297;SDS011;43147;50.972;18.210;2024-03-08T13:49:59;51.00;;;36.10;;
57297;SDS011;43147;50.972;18.210;2024-03-08T13:52:26;30.90;;;18.30;;
57297;SDS011;43147;50.972;18.210;2024-03-08T13:54:55;48.00;;;33.50;;
57297;SDS011;43147;50.972;18.210;2024-03-08T13:57:21;47.30;;;33.30;;
57297;SDS011;43147;50.972;18.210;2024-03-08T13:59:47;35.90;;;18.90;;
57297;SDS011;43147;50.972;18.210;2024-03-08T14:02:16;46.60;;;32.70;;
57297;SDS011;43147;50.972;18.210;2024-03-08T14:04:42;35.20;;;19.00;;
57297;SDS011;43147;50.972;18.210;2024-03-08T14:07:08;47.30;;;33.90;;
57297;SDS011;43147;50.972;18.210;2024-03-08T14:09:36;38.80;;;16.80;;
57297;SDS011;43147;50.972;18.210;2024-03-08T14:12:03;38.20;;;27.80;;
57297;SDS011;43147;50.972;18.210;2024-03-08T14:14:35;34.20;;;19.40;;
57297;SDS011;43147;50.972;18.210;2024-03-08T14:17:01;33.50;;;16.90;;
57297;SDS011;43147;50.972;18.210;2024-03-08T14:19:27;38.50;;;29.40;;
57297;SDS011;43147;50.972;18.210;2024-03-08T14:21:56;40.30;;;25.60;;
57297;SDS011;43147;50.972;18.210;2024-03-08T14:24:24;35.50;;;21.70;;
57297;SDS011;43147;50.972;18.210;2024-03-08T14:26:50;32.70;;;19.00;;
57297;SDS011;43147;50.972;18.210;2024-03-08T14:29:16;46.00;;;33.70;;